Time;durP1;ratioP1;P1;durP2;ratioP2;P2;SDS_P1;SDS_P2;PMS_P1;PMS_P2;Temp;Humidity;BMP_temperature;BMP_pressure;BME280_temperature;BME280_humidity;BME280_pressure;Samples;Min_cycle;Max_cycle;Signal;HPM_P1;HPM_P2
2022/07/23 00:00:58;;;;;;;4.55;4.25;;;30.70;40.00;;;;;;5087231;28;46383;-72
2022/07/23 00:03:26;;;;;;;4.57;4.18;;;30.60;40.00;;;;;;5086576;27;45253;-72
2022/07/23 00:05:53;;;;;;;4.88;4.25;;;30.60;39.90;;;;;;5087574;28;45250;-73
2022/07/23 00:08:21;;;;;;;4.97;4.00;;;30.60;40.10;;;;;;5087658;28;45314;-72
2022/07/23 00:10:47;;;;;;;4.45;4.05;;;30.60;40.20;;;;;;5086804;28;45320;-71
2022/07/23 00:13:14;;;;;;;4.72;4.28;;;30.60;40.30;;;;;;5086749;28;45190;-72
2022/07/23 00:15:41;;;;;;;4.20;3.85;;;30.60;40.20;;;;;;5087251;28;45248;-72
2022/07/23 00:18:08;;;;;;;4.32;4.03;;;30.60;40.40;;;;;;5087447;28;45460;-72
2022/07/23 00:20:35;;;;;;;4.30;4.00;;;30.50;40.20;;;;;;5087136;28;46634;-72
2022/07/23 00:23:01;;;;;;;4.10;3.78;;;30.50;40.20;;;;;;5087216;28;45289;-72
2022/07/23 00:25:30;;;;;;;4.35;4.00;;;30.50;40.40;;;;;;5087201;28;45135;-72
2022/07/23 00:27:56;;;;;;;3.85;3.55;;;30.50;40.30;;;;;;5087376;28;45180;-72
2022/07/23 00:30:23;;;;;;;4.05;3.75;;;30.40;40.40;;;;;;5086744;28;45731;-72
2022/07/23 00:32:52;;;;;;;4.18;3.88;;;30.40;40.40;;;;;;5087120;28;45406;-72
2022/07/23 00:35:20;;;;;;;4.18;3.88;;;30.40;40.50;;;;;;5087281;28;45273;-72
2022/07/23 00:37:47;;;;;;;3.97;3.67;;;30.40;40.60;;;;;;5087083;28;45471;-73
2022/07/23 00:40:14;;;;;;;4.07;3.72;;;30.40;40.50;;;;;;5086860;28;46879;-72
2022/07/23 00:42:42;;;;;;;4.35;4.05;;;30.30;40.40;;;;;;5086877;28;45257;-72
2022/07/23 00:45:09;;;;;;;4.65;4.25;;;30.30;40.50;;;;;;5087017;28;45286;-72
2022/07/23 00:47:36;;;;;;;4.40;4.00;;;30.30;41.20;;;;;;5087126;28;45157;-72
2022/07/23 00:50:04;;;;;;;4.22;3.92;;;30.30;40.70;;;;;;5086532;28;45276;-71
2022/07/23 00:52:31;;;;;;;4.03;3.63;;;30.30;40.80;;;;;;5086703;28;45325;-71
2022/07/23 00:54:58;;;;;;;4.85;3.90;;;30.30;40.80;;;;;;5086839;28;45178;-71
2022/07/23 00:57:24;;;;;;;4.13;3.83;;;30.20;40.90;;;;;;5086502;28;45121;-69
2022/07/23 00:59:53;;;;;;;3.78;3.47;;;30.20;40.80;;;;;;5086118;28;45206;-71
2022/07/23 01:02:19;;;;;;;4.10;3.80;;;30.20;40.80;;;;;;5086701;28;45317;-72
2022/07/23 01:04:46;;;;;;;4.00;3.67;;;30.20;40.90;;;;;;5086660;28;45241;-71
2022/07/23 01:07:13;;;;;;;4.68;4.28;;;30.20;40.90;;;;;;5086730;28;45396;-72
2022/07/23 01:09:40;;;;;;;4.28;3.70;;;30.10;40.70;;;;;;5086396;28;47362;-71
2022/07/23 01:12:07;;;;;;;4.25;3.85;;;30.10;40.80;;;;;;5086365;28;45190;-72
2022/07/23 01:14:34;;;;;;;4.45;4.05;;;30.10;40.80;;;;;;5088432;28;45337;-72
2022/07/23 01:17:02;;;;;;;3.90;3.60;;;30.10;40.80;;;;;;5090179;28;45398;-72
2022/07/23 01:19:29;;;;;;;3.70;3.40;;;30.10;40.90;;;;;;5090071;28;46664;-71
2022/07/23 01:21:55;;;;;;;4.57;4.00;;;30.10;41.50;;;;;;5089944;28;45239;-71
2022/07/23 01:24:24;;;;;;;5.88;4.40;;;30.10;41.70;;;;;;5090181;28;45354;-71
2022/07/23 01:26:51;;;;;;;4.40;4.00;;;30.00;40.90;;;;;;5090132;28;45225;-71
2022/07/23 01:29:18;;;;;;;4.30;3.92;;;30.00;41.00;;;;;;5089627;28;46662;-72
2022/07/23 01:31:45;;;;;;;4.22;3.85;;;30.00;40.90;;;;;;5089944;28;45380;-71
2022/07/23 01:34:12;;;;;;;4.10;3.80;;;30.00;41.10;;;;;;5089869;28;45197;-71
2022/07/23 01:36:38;;;;;;;4.18;3.88;;;30.00;41.00;;;;;;5089940;28;45281;-71
2022/07/23 01:39:06;;;;;;;4.30;4.00;;;29.90;41.00;;;;;;5089329;28;46382;-71
2022/07/23 01:41:34;;;;;;;4.10;3.80;;;29.90;41.00;;;;;;5089773;28;45259;-72
2022/07/23 01:44:01;;;;;;;4.07;3.78;;;29.90;41.40;;;;;;5089078;28;45201;-71
2022/07/23 01:46:27;;;;;;;4.43;4.03;;;29.90;41.80;;;;;;5089452;28;45276;-71
2022/07/23 01:48:54;;;;;;;4.10;3.80;;;29.80;41.60;;;;;;5089406;28;46347;-71
2022/07/23 01:51:21;;;;;;;3.97;3.67;;;29.80;41.60;;;;;;5089427;28;45310;-71
2022/07/23 01:53:48;;;;;;;4.13;3.83;;;29.80;42.10;;;;;;5089614;28;45270;-71
2022/07/23 01:56:15;;;;;;;4.07;3.78;;;29.80;41.70;;;;;;5089754;28;45182;-71
2022/07/23 01:58:43;;;;;;;4.05;3.65;;;29.70;41.30;;;;;;5089242;28;45481;-71
2022/07/23 02:01:10;;;;;;;3.88;3.58;;;29.70;41.30;;;;;;5089318;28;45249;-71
2022/07/23 02:03:36;;;;;;;3.75;3.45;;;29.80;41.30;;;;;;5089300;28;45285;-72
2022/07/23 02:06:03;;;;;;;4.10;3.70;;;29.70;41.40;;;;;;5089659;28;45365;-71
2022/07/23 02:08:30;;;;;;;4.22;3.83;;;29.70;41.70;;;;;;5089049;28;45186;-71
2022/07/23 02:10:57;;;;;;;4.35;3.95;;;29.70;41.70;;;;;;5089365;28;45185;-71
2022/07/23 02:13:24;;;;;;;4.20;3.85;;;29.60;41.80;;;;;;5089211;28;45297;-71
2022/07/23 02:15:52;;;;;;;3.70;3.40;;;29.60;41.80;;;;;;5089686;28;45309;-71
2022/07/23 02:18:19;;;;;;;3.80;3.50;;;29.60;42.10;;;;;;5088954;28;46362;-72
2022/07/23 02:20:45;;;;;;;4.28;3.88;;;29.60;42.10;;;;;;5089088;28;45207;-71
2022/07/23 02:23:12;;;;;;;4.68;3.70;;;29.60;42.20;;;;;;5089084;28;45247;-71
2022/07/23 02:25:39;;;;;;;4.20;3.90;;;29.60;41.90;;;;;;5088801;28;45272;-71
2022/07/23 02:28:06;;;;;;;4.15;3.85;;;29.50;42.10;;;;;;5088797;28;46384;-70
2022/07/23 02:30:33;;;;;;;4.22;3.80;;;29.50;42.20;;;;;;5088139;28;45186;-71
2022/07/23 02:33:01;;;;;;;4.03;3.72;;;29.50;42.40;;;;;;5088877;28;45214;-71
2022/07/23 02:35:27;;;;;;;3.90;3.60;;;29.50;42.40;;;;;;5088996;28;45495;-71
2022/07/23 02:37:54;;;;;;;3.92;3.53;;;29.40;42.30;;;;;;5088372;28;45289;-71
2022/07/23 02:40:21;;;;;;;3.95;3.65;;;29.40;43.10;;;;;;5088720;28;45244;-71
2022/07/23 02:42:48;;;;;;;3.65;3.40;;;29.40;42.30;;;;;;5088868;28;45222;-71
2022/07/23 02:45:15;;;;;;;4.05;3.75;;;29.40;42.40;;;;;;5088939;28;45408;-71
2022/07/23 02:47:41;;;;;;;4.35;3.90;;;29.40;42.50;;;;;;5088523;28;46417;-72
2022/07/23 02:50:11;;;;;;;4.00;3.67;;;29.40;42.60;;;;;;5088466;28;45260;-71
2022/07/23 02:52:38;;;;;;;4.50;4.10;;;29.40;42.60;;;;;;5088525;28;45326;-72
2022/07/23 02:55:06;;;;;;;3.88;3.58;;;29.40;42.60;;;;;;5088725;28;45301;-71
2022/07/23 02:57:33;;;;;;;4.15;3.70;;;29.30;42.50;;;;;;5088490;28;46405;-72
2022/07/23 03:00:00;;;;;;;3.90;3.60;;;29.30;42.40;;;;;;5088382;28;45246;-71
2022/07/23 03:02:26;;;;;;;3.75;3.45;;;29.30;42.60;;;;;;5088611;28;45286;-72
2022/07/23 03:04:53;;;;;;;3.95;3.55;;;29.30;42.50;;;;;;5088529;28;45197;-72
2022/07/23 03:07:22;;;;;;;3.58;3.28;;;29.30;42.60;;;;;;5088136;28;45524;-71
2022/07/23 03:09:48;;;;;;;5.85;4.10;;;29.30;42.70;;;;;;5088385;28;45234;-71
2022/07/23 03:12:15;;;;;;;3.97;3.65;;;29.20;42.70;;;;;;5088333;28;45265;-71
2022/07/23 03:14:42;;;;;;;3.72;3.42;;;29.20;42.90;;;;;;5088389;28;45401;-72
2022/07/23 03:17:09;;;;;;;3.90;3.60;;;29.20;42.70;;;;;;5087513;28;45312;-71
2022/07/23 03:19:36;;;;;;;3.65;3.35;;;29.20;42.60;;;;;;5088049;28;45262;-71
2022/07/23 03:22:03;;;;;;;3.90;3.50;;;29.10;42.80;;;;;;5088103;28;45442;-71
2022/07/23 03:27:12;;;;;;;4.05;3.70;;;29.10;42.80;;;;;;5086862;28;46466;-72
2022/07/23 03:29:39;;;;;;;3.92;3.53;;;29.10;42.80;;;;;;5087774;28;45242;-71
2022/07/23 03:32:06;;;;;;;3.90;3.60;;;29.10;42.90;;;;;;5088016;28;45248;-72
2022/07/23 03:34:33;;;;;;;4.28;3.88;;;29.10;43.00;;;;;;5088138;28;45278;-71
2022/07/23 03:36:59;;;;;;;3.85;3.55;;;29.10;43.00;;;;;;5086998;27;46386;-71
2022/07/23 03:39:26;;;;;;;3.75;3.45;;;29.10;43.10;;;;;;5086989;28;45292;-72
2022/07/23 03:41:54;;;;;;;3.72;3.42;;;29.10;42.90;;;;;;5088067;28;45441;-71
2022/07/23 03:44:21;;;;;;;3.80;3.50;;;29.00;43.00;;;;;;5088201;28;45391;-71
2022/07/23 03:46:48;;;;;;;4.30;3.90;;;29.00;43.00;;;;;;5087633;28;45242;-71
2022/07/23 03:49:15;;;;;;;3.80;3.50;;;29.00;43.00;;;;;;5087795;28;45261;-71
2022/07/23 03:51:41;;;;;;;3.80;3.50;;;29.00;43.00;;;;;;5087742;28;45223;-71
2022/07/23 03:54:08;;;;;;;3.72;3.42;;;28.90;43.00;;;;;;5087742;28;45314;-71
2022/07/23 03:56:35;;;;;;;3.90;3.50;;;28.90;43.10;;;;;;5087509;28;46897;-72
2022/07/23 03:59:03;;;;;;;3.45;3.22;;;28.90;43.00;;;;;;5087495;28;45318;-72
2022/07/23 04:01:30;;;;;;;4.75;3.75;;;28.90;42.90;;;;;;5087740;28;45291;-71
2022/07/23 04:03:57;;;;;;;3.72;3.42;;;28.90;43.00;;;;;;5087543;28;45412;-71
2022/07/23 04:06:24;;;;;;;3.90;3.60;;;28.90;43.00;;;;;;5086582;28;45245;-71
2022/07/23 04:08:50;;;;;;;3.70;3.40;;;28.80;43.60;;;;;;5087243;28;45338;-71
2022/07/23 04:11:17;;;;;;;3.70;3.40;;;28.80;43.10;;;;;;5087495;28;45333;-72
2022/07/23 04:13:44;;;;;;;3.75;3.45;;;28.80;43.20;;;;;;5087527;28;45437;-73
2022/07/23 04:16:12;;;;;;;3.55;3.30;;;28.80;43.30;;;;;;5087026;28;46393;-72
2022/07/23 04:18:39;;;;;;;5.05;3.78;;;28.80;43.00;;;;;;5087226;28;45293;-72
2022/07/23 04:21:06;;;;;;;4.22;3.75;;;28.80;43.20;;;;;;5087659;28;45319;-73
2022/07/23 04:23:33;;;;;;;3.72;3.25;;;28.80;43.10;;;;;;5087445;28;45277;-72
2022/07/23 04:25:59;;;;;;;3.95;3.65;;;28.70;43.10;;;;;;5087047;28;46345;-72
2022/07/23 04:28:26;;;;;;;3.50;3.20;;;28.70;43.20;;;;;;5087259;28;45305;-72
2022/07/23 04:30:53;;;;;;;3.67;3.40;;;28.70;43.20;;;;;;5087103;28;45178;-72
2022/07/23 04:33:21;;;;;;;4.20;3.80;;;28.70;43.20;;;;;;5087218;28;45300;-72
2022/07/23 04:35:48;;;;;;;3.95;3.55;;;28.70;43.20;;;;;;5086809;28;46402;-72
2022/07/23 04:38:15;;;;;;;4.10;3.80;;;28.70;43.20;;;;;;5086728;28;45246;-73
2022/07/23 04:40:41;;;;;;;3.90;3.60;;;28.70;43.20;;;;;;5087042;28;45170;-72
2022/07/23 04:43:08;;;;;;;3.67;3.38;;;28.60;43.10;;;;;;5087186;28;45173;-72
2022/07/23 04:45:35;;;;;;;4.25;3.92;;;28.60;43.10;;;;;;5086835;28;46516;-71
2022/07/23 04:48:02;;;;;;;4.07;3.67;;;28.60;43.10;;;;;;5086771;28;45303;-71
2022/07/23 04:50:30;;;;;;;3.50;3.20;;;28.60;43.10;;;;;;5092807;28;45352;-71
2022/07/23 04:52:57;;;;;;;3.95;3.65;;;28.60;43.20;;;;;;5093206;28;45362;-71
2022/07/23 04:55:24;;;;;;;3.38;3.08;;;28.60;43.20;;;;;;5093461;28;45265;-71
2022/07/23 04:57:50;;;;;;;3.65;3.45;;;28.60;43.30;;;;;;5093423;28;45300;-71
2022/07/23 05:00:17;;;;;;;3.92;3.50;;;28.60;43.30;;;;;;5093595;28;45294;-71
2022/07/23 05:02:44;;;;;;;3.47;3.28;;;28.50;43.30;;;;;;5093897;28;45404;-72
2022/07/23 05:05:11;;;;;;;4.13;3.83;;;28.50;43.30;;;;;;5093410;28;47457;-72
2022/07/23 05:07:39;;;;;;;3.80;3.50;;;28.60;43.40;;;;;;5093453;28;45190;-71
2022/07/23 05:10:06;;;;;;;4.00;3.70;;;28.50;43.40;;;;;;5093555;28;45269;-71
2022/07/23 05:12:33;;;;;;;4.05;3.75;;;28.50;43.50;;;;;;5093427;28;45246;-72
2022/07/23 05:15:00;;;;;;;4.03;3.72;;;28.50;43.50;;;;;;5093147;28;47325;-72
2022/07/23 05:17:27;;;;;;;3.75;3.45;;;28.50;43.50;;;;;;5093224;28;45153;-71
2022/07/23 05:19:53;;;;;;;4.05;3.53;;;28.40;43.50;;;;;;5093521;28;45127;-72
2022/07/23 05:22:20;;;;;;;3.83;3.53;;;28.40;43.70;;;;;;5093339;28;45353;-71
2022/07/23 05:24:48;;;;;;;3.85;3.58;;;28.40;43.90;;;;;;5093044;28;47346;-72
2022/07/23 05:27:15;;;;;;;3.70;3.40;;;28.40;43.90;;;;;;5093233;28;45196;-71
2022/07/23 05:29:42;;;;;;;3.88;3.58;;;28.40;44.00;;;;;;5093241;28;45257;-72
2022/07/23 05:32:09;;;;;;;4.05;3.75;;;28.40;43.90;;;;;;5093538;28;45399;-71
2022/07/23 05:34:35;;;;;;;3.72;3.42;;;28.40;43.80;;;;;;5092743;28;47390;-71
2022/07/23 05:37:02;;;;;;;3.72;3.42;;;28.40;43.90;;;;;;5092433;28;45299;-71
2022/07/23 05:39:29;;;;;;;3.80;3.50;;;28.40;44.10;;;;;;5092666;28;45351;-71
2022/07/23 05:41:57;;;;;;;3.67;3.38;;;28.30;44.00;;;;;;5093079;28;45253;-71
2022/07/23 05:44:24;;;;;;;3.92;3.60;;;28.30;44.00;;;;;;5093147;28;46151;-72
2022/07/23 05:46:51;;;;;;;3.80;3.50;;;28.30;44.00;;;;;;5092994;28;45228;-71
2022/07/23 05:49:17;;;;;;;3.80;3.50;;;28.30;44.30;;;;;;5092285;28;45242;-71
2022/07/23 05:51:45;;;;;;;3.70;3.40;;;28.30;45.00;;;;;;5092393;28;45187;-72
2022/07/23 05:54:11;;;;;;;4.20;3.80;;;28.30;44.20;;;;;;5091779;28;47315;-71
2022/07/23 05:56:38;;;;;;;4.20;3.90;;;28.30;44.40;;;;;;5091895;28;45215;-71
2022/07/23 05:59:07;;;;;;;3.88;3.58;;;28.30;44.40;;;;;;5092328;28;45385;-72
2022/07/23 06:01:33;;;;;;;3.65;3.35;;;28.30;44.30;;;;;;5089489;27;45302;-72
2022/07/23 06:04:00;;;;;;;4.22;3.83;;;28.30;44.30;;;;;;5089366;28;45178;-71
2022/07/23 06:06:27;;;;;;;4.10;3.80;;;28.20;44.50;;;;;;5089576;28;45158;-72
2022/07/23 06:08:54;;;;;;;4.30;3.92;;;28.20;44.40;;;;;;5089504;28;45215;-72
2022/07/23 06:11:21;;;;;;;4.10;3.80;;;28.20;44.50;;;;;;5089811;28;45319;-72
2022/07/23 06:13:47;;;;;;;4.20;3.80;;;28.20;44.40;;;;;;5089251;28;45271;-72
2022/07/23 06:16:15;;;;;;;4.30;3.90;;;28.20;44.30;;;;;;5089001;28;45454;-72
2022/07/23 06:18:43;;;;;;;3.90;3.60;;;28.30;44.50;;;;;;5089445;28;45212;-72
2022/07/23 06:21:10;;;;;;;4.68;3.70;;;28.30;44.40;;;;;;5089459;28;45411;-71
2022/07/23 06:23:37;;;;;;;3.97;3.67;;;28.30;44.60;;;;;;5088356;28;45237;-71
2022/07/23 06:26:03;;;;;;;4.47;4.07;;;28.30;44.30;;;;;;5088944;28;45268;-71
2022/07/23 06:28:30;;;;;;;3.90;3.60;;;28.30;44.40;;;;;;5089018;28;45264;-72
2022/07/23 06:30:57;;;;;;;3.67;3.42;;;28.30;44.30;;;;;;5068908;28;45270;-72
2022/07/23 06:33:25;;;;;;;3.80;3.47;;;28.30;44.30;;;;;;5068660;28;46386;-71
2022/07/23 06:35:52;;;;;;;4.05;3.60;;;28.30;44.10;;;;;;5072070;28;45278;-72
2022/07/23 06:38:19;;;;;;;4.00;3.65;;;28.30;44.30;;;;;;5088527;28;45360;-71
2022/07/23 06:40:45;;;;;;;3.78;3.47;;;28.30;44.40;;;;;;5089045;28;45182;-72
2022/07/23 06:43:12;;;;;;;3.67;3.38;;;28.30;44.50;;;;;;5088724;28;46412;-72
2022/07/23 06:45:39;;;;;;;3.83;3.50;;;28.30;44.20;;;;;;5088718;28;45218;-72
2022/07/23 06:48:06;;;;;;;3.90;3.60;;;28.30;44.10;;;;;;5088691;28;45352;-72
2022/07/23 06:50:34;;;;;;;3.80;3.50;;;28.40;44.50;;;;;;5088980;28;45348;-72
2022/07/23 06:53:01;;;;;;;3.75;3.45;;;28.40;44.10;;;;;;5088666;28;46806;-72
2022/07/23 06:55:28;;;;;;;3.58;3.38;;;28.40;44.10;;;;;;5088386;28;45179;-71
2022/07/23 06:57:55;;;;;;;3.90;3.60;;;28.40;44.20;;;;;;5088498;28;45219;-72
2022/07/23 07:00:22;;;;;;;4.65;3.67;;;28.40;44.30;;;;;;5088715;28;45400;-72
2022/07/23 07:02:48;;;;;;;4.00;3.60;;;28.40;44.10;;;;;;5088292;28;46412;-72
2022/07/23 07:05:15;;;;;;;3.70;3.40;;;28.40;44.10;;;;;;5088552;28;45300;-72
2022/07/23 07:07:43;;;;;;;4.07;3.70;;;28.40;43.90;;;;;;5087835;28;45296;-71
2022/07/23 07:10:10;;;;;;;4.22;3.85;;;28.40;43.90;;;;;;5088287;28;45131;-72
2022/07/23 07:12:37;;;;;;;3.83;3.53;;;28.40;43.90;;;;;;5087847;27;45346;-72
2022/07/23 07:15:05;;;;;;;3.58;3.28;;;28.40;44.00;;;;;;5088192;28;45320;-72
2022/07/23 07:17:31;;;;;;;3.45;3.25;;;28.40;44.10;;;;;;5088367;28;45190;-72
2022/07/23 07:19:58;;;;;;;3.88;3.58;;;28.40;44.10;;;;;;5088437;28;45420;-73
2022/07/23 07:22:25;;;;;;;3.67;3.38;;;28.40;44.10;;;;;;5088116;28;46800;-72
2022/07/23 07:24:53;;;;;;;3.72;3.42;;;28.40;44.00;;;;;;5087934;28;45333;-72
2022/07/23 07:27:20;;;;;;;3.83;3.53;;;28.40;44.00;;;;;;5085217;28;45289;-72
2022/07/23 07:29:47;;;;;;;3.65;3.35;;;28.40;44.10;;;;;;5087904;28;45181;-72
2022/07/23 07:32:14;;;;;;;3.75;3.45;;;28.40;44.20;;;;;;5087817;28;46387;-72
2022/07/23 07:34:40;;;;;;;3.65;3.35;;;28.40;44.10;;;;;;5087691;28;45173;-72
2022/07/23 07:37:07;;;;;;;4.20;3.90;;;28.40;44.00;;;;;;5088075;28;45312;-72
2022/07/23 07:39:34;;;;;;;4.07;3.67;;;28.40;44.00;;;;;;5087668;28;45430;-72
2022/07/23 07:42:02;;;;;;;4.32;3.53;;;28.40;44.00;;;;;;5087632;28;46734;-72
2022/07/23 07:44:29;;;;;;;4.03;3.72;;;28.50;44.00;;;;;;5087725;28;45203;-72
2022/07/23 07:46:56;;;;;;;3.80;3.50;;;28.50;44.00;;;;;;5087959;28;45317;-72
2022/07/23 07:49:23;;;;;;;3.60;3.40;;;28.50;44.00;;;;;;5087978;28;45406;-72
2022/07/23 07:51:55;;;;;;;3.95;3.65;;;28.50;44.00;;;;;;5087589;28;45404;-72
2022/07/23 07:54:22;;;;;;;3.95;3.65;;;28.50;44.80;;;;;;5087106;28;45357;-72
2022/07/23 07:56:49;;;;;;;3.47;3.28;;;28.50;44.00;;;;;;5087562;28;45243;-71
2022/07/23 07:59:17;;;;;;;3.85;3.55;;;28.50;44.20;;;;;;5087961;28;45399;-72
2022/07/23 08:01:44;;;;;;;3.90;3.60;;;28.60;44.00;;;;;;5087620;28;45191;-72
2022/07/23 08:04:10;;;;;;;3.90;3.50;;;28.60;44.10;;;;;;5087225;28;45193;-72
2022/07/23 08:06:38;;;;;;;3.85;3.55;;;28.60;44.10;;;;;;5087524;28;45257;-72
2022/07/23 08:09:04;;;;;;;3.70;3.40;;;28.60;44.00;;;;;;5087643;28;45436;-72
2022/07/23 08:11:31;;;;;;;3.88;3.58;;;28.60;44.00;;;;;;5087182;28;45339;-72
2022/07/23 08:13:58;;;;;;;3.80;3.38;;;28.60;44.00;;;;;;5087199;28;45328;-72
2022/07/23 08:16:26;;;;;;;4.15;3.85;;;28.60;44.00;;;;;;5087514;28;45130;-72
2022/07/23 08:18:53;;;;;;;3.55;3.35;;;28.70;43.90;;;;;;5087674;28;45266;-72
2022/07/23 08:21:20;;;;;;;3.75;3.45;;;28.70;43.80;;;;;;5087185;28;46510;-72
2022/07/23 08:23:46;;;;;;;3.78;3.47;;;28.70;43.70;;;;;;5086379;27;45195;-72
2022/07/23 08:26:13;;;;;;;3.78;3.47;;;28.70;43.80;;;;;;5087294;28;45252;-72
2022/07/23 08:28:40;;;;;;;3.80;3.50;;;28.70;44.00;;;;;;5087325;28;45124;-72
2022/07/23 08:31:07;;;;;;;4.10;3.80;;;28.80;43.80;;;;;;5086930;28;45435;-72
2022/07/23 08:33:35;;;;;;;4.38;3.97;;;28.80;45.10;;;;;;5086938;28;45349;-72
2022/07/23 08:36:03;;;;;;;4.10;3.80;;;28.80;43.90;;;;;;5087010;28;45387;-73
2022/07/23 08:38:30;;;;;;;4.20;3.88;;;28.80;44.00;;;;;;5086812;28;45171;-71
2022/07/23 08:40:57;;;;;;;3.90;3.60;;;28.80;43.70;;;;;;5086323;28;46392;-71
2022/07/23 08:43:24;;;;;;;3.85;3.55;;;28.80;44.50;;;;;;5086957;28;45326;-71
2022/07/23 08:45:52;;;;;;;4.13;3.78;;;28.80;44.20;;;;;;5087293;28;45331;-71
2022/07/23 08:48:19;;;;;;;3.88;3.55;;;28.80;44.50;;;;;;5087257;28;45447;-72
2022/07/23 08:50:48;;;;;;;4.00;3.70;;;28.80;44.10;;;;;;5086670;28;46401;-72
2022/07/23 08:53:15;;;;;;;4.05;3.75;;;28.80;44.40;;;;;;5086727;28;45230;-72
2022/07/23 08:55:44;;;;;;;3.92;3.63;;;28.80;44.00;;;;;;5086944;28;45303;-72
2022/07/23 08:58:11;;;;;;;4.45;4.05;;;28.90;43.90;;;;;;5087007;28;45161;-72
2022/07/23 09:00:37;;;;;;;3.45;3.15;;;28.90;44.00;;;;;;5086533;28;45311;-72
2022/07/23 09:03:04;;;;;;;3.97;3.53;;;28.90;43.80;;;;;;5086615;28;45385;-72
2022/07/23 09:05:31;;;;;;;3.53;3.28;;;28.90;43.70;;;;;;5086735;28;45306;-72
2022/07/23 09:08:10;;;;;;;4.03;3.72;;;28.90;43.60;;;;;;5086880;28;45248;-72
2022/07/23 09:10:47;;;;;;;3.55;3.30;;;29.00;43.50;;;;;;5086560;28;47342;-72
2022/07/23 09:13:36;;;;;;;3.90;3.60;;;29.00;43.70;;;;;;5086649;28;45378;-72
2022/07/23 09:16:06;;;;;;;3.97;3.67;;;29.10;43.80;;;;;;5086400;28;45115;-72
2022/07/23 09:18:34;;;;;;;3.78;3.47;;;29.10;43.50;;;;;;5086760;28;45174;-72
2022/07/23 09:21:11;;;;;;;3.58;3.38;;;29.10;43.30;;;;;;5086262;28;45310;-72
2022/07/23 09:23:40;;;;;;;3.97;3.67;;;29.10;43.20;;;;;;5086441;28;45236;-72
2022/07/23 09:26:21;;;;;;;3.83;3.53;;;29.10;43.40;;;;;;5086750;28;45181;-72
2022/07/23 09:28:52;;;;;;;3.70;3.40;;;29.10;43.20;;;;;;5086453;28;45254;-72
2022/07/23 09:31:19;;;;;;;3.50;3.25;;;29.20;43.40;;;;;;5086142;28;48126;-72
2022/07/23 09:33:46;;;;;;;3.92;3.65;;;29.20;43.50;;;;;;5086109;28;45374;-73
2022/07/23 09:36:13;;;;;;;3.70;3.42;;;29.20;43.70;;;;;;5087277;27;45275;-72
2022/07/23 09:38:48;;;;;;;3.83;3.50;;;29.20;43.70;;;;;;5089769;28;45188;-72
2022/07/23 09:41:17;;;;;;;4.07;3.70;;;29.20;43.60;;;;;;5089480;28;45400;-71
2022/07/23 09:43:43;;;;;;;3.70;3.40;;;29.20;43.50;;;;;;5089663;28;45288;-71
2022/07/23 09:46:24;;;;;;;3.80;3.50;;;29.30;43.60;;;;;;5089966;28;45281;-71
2022/07/23 09:48:52;;;;;;;4.05;3.75;;;29.30;43.50;;;;;;5089818;28;45198;-72
2022/07/23 09:51:21;;;;;;;4.07;3.78;;;29.30;43.50;;;;;;5089445;28;46457;-72
2022/07/23 09:53:49;;;;;;;3.90;3.60;;;29.30;43.50;;;;;;5089322;28;45168;-72
2022/07/23 09:56:16;;;;;;;4.38;3.97;;;29.30;43.50;;;;;;5089500;28;45201;-72
2022/07/23 09:58:48;;;;;;;3.90;3.60;;;29.40;43.60;;;;;;5088905;28;45566;-72
2022/07/23 10:01:15;;;;;;;3.60;3.40;;;29.40;43.50;;;;;;5088604;28;46655;-72
2022/07/23 10:03:42;;;;;;;3.88;3.58;;;29.40;43.50;;;;;;5089392;28;45177;-71
2022/07/23 10:06:09;;;;;;;3.92;3.63;;;29.50;43.50;;;;;;5089318;28;45292;-72
2022/07/23 10:08:36;;;;;;;4.35;4.05;;;29.50;43.90;;;;;;5089428;28;45249;-72
2022/07/23 10:11:04;;;;;;;3.80;3.50;;;29.50;43.00;;;;;;5089210;28;46488;-72
2022/07/23 10:13:54;;;;;;;3.88;3.58;;;29.60;43.00;;;;;;5089090;28;45193;-72
2022/07/23 10:16:21;;;;;;;3.55;3.25;;;29.50;42.90;;;;;;5089103;28;45275;-72
2022/07/23 10:18:48;;;;;;;4.28;3.97;;;29.60;42.90;;;;;;5089398;28;45401;-72
2022/07/23 10:21:19;;;;;;;3.90;3.60;;;29.60;43.10;;;;;;5088839;28;46380;-72
2022/07/23 10:23:49;;;;;;;4.43;4.03;;;29.60;43.10;;;;;;5088731;28;45281;-72
2022/07/23 10:26:20;;;;;;;4.07;3.70;;;29.60;43.00;;;;;;5089392;28;45277;-72
2022/07/23 10:28:59;;;;;;;4.03;3.72;;;29.60;42.90;;;;;;5089214;28;45325;-72
2022/07/23 10:31:32;;;;;;;4.30;3.97;;;29.70;43.00;;;;;;5088901;28;47321;-72
2022/07/23 10:34:03;;;;;;;4.20;3.80;;;29.70;43.00;;;;;;5088980;28;45178;-72
2022/07/23 10:36:33;;;;;;;3.88;3.58;;;29.70;42.90;;;;;;5088802;28;45306;-72
2022/07/23 10:39:05;;;;;;;4.00;3.70;;;29.70;42.90;;;;;;5088706;28;45393;-72
2022/07/23 10:41:34;;;;;;;4.03;3.72;;;29.80;42.90;;;;;;5088768;28;46584;-72
2022/07/23 10:44:08;;;;;;;3.75;3.47;;;29.80;42.90;;;;;;5088667;28;45117;-72
2022/07/23 10:46:39;;;;;;;4.07;3.78;;;29.80;42.90;;;;;;5088385;27;45229;-72
2022/07/23 10:49:36;;;;;;;4.10;3.70;;;29.80;43.00;;;;;;5088942;28;45570;-72
2022/07/23 10:52:33;;;;;;;4.30;4.00;;;29.90;43.00;;;;;;5045947;28;47314;-72
2022/07/23 10:55:44;;;;;;;3.75;3.45;;;29.90;42.90;;;;;;5087070;28;45274;-72
2022/07/23 10:58:13;;;;;;;5.50;3.53;;;30.00;42.70;;;;;;5005795;28;45584;-71
2022/07/23 11:00:40;;;;;;;4.18;3.70;;;30.00;42.60;;;;;;5069254;28;45227;-71
2022/07/23 11:03:28;;;;;;;4.10;3.80;;;30.00;42.60;;;;;;5090003;28;46404;-72
2022/07/23 11:05:54;;;;;;;4.10;3.80;;;30.00;43.20;;;;;;5088508;28;45260;-72
2022/07/23 11:08:21;;;;;;;4.03;3.72;;;30.10;42.70;;;;;;5088373;28;45197;-72
2022/07/23 11:10:50;;;;;;;4.28;3.97;;;30.10;42.60;;;;;;5088765;28;45365;-72
2022/07/23 11:13:32;;;;;;;4.22;3.92;;;30.10;42.50;;;;;;5087853;28;46640;-72
2022/07/23 11:16:26;;;;;;;3.85;3.55;;;30.20;42.60;;;;;;5087935;28;45182;-72
2022/07/23 11:19:09;;;;;;;4.28;3.90;;;30.20;42.50;;;;;;5088068;28;45340;-72
2022/07/23 11:21:58;;;;;;;3.65;3.35;;;30.30;42.60;;;;;;5088115;28;45422;-72
2022/07/23 11:24:25;;;;;;;4.03;3.67;;;30.30;42.60;;;;;;5089215;28;45255;-72
2022/07/23 11:27:02;;;;;;;4.05;3.75;;;30.30;42.50;;;;;;5088533;28;44633;-71
2022/07/23 11:29:57;;;;;;;4.28;3.97;;;30.40;42.60;;;;;;5089483;28;45303;-72
2022/07/23 11:32:42;;;;;;;4.47;4.07;;;30.40;42.60;;;;;;5088701;28;45222;-72
2022/07/23 11:35:23;;;;;;;4.30;3.90;;;30.50;42.50;;;;;;5088182;28;46787;-72
2022/07/23 11:37:53;;;;;;;3.65;3.45;;;30.50;42.40;;;;;;5088028;28;45423;-72
2022/07/23 11:40:20;;;;;;;3.67;3.47;;;30.60;42.60;;;;;;5088140;28;45280;-72
2022/07/23 11:42:54;;;;;;;4.10;3.80;;;30.50;42.40;;;;;;5088184;28;45315;-72
2022/07/23 11:45:23;;;;;;;3.45;3.25;;;30.60;42.50;;;;;;5087582;28;46354;-72
2022/07/23 11:47:49;;;;;;;3.97;3.67;;;30.60;42.40;;;;;;5088085;28;45219;-72
2022/07/23 11:50:16;;;;;;;4.00;3.70;;;30.70;42.40;;;;;;5088299;28;45265;-72
2022/07/23 11:52:43;;;;;;;4.07;3.78;;;30.70;42.30;;;;;;5087872;28;45400;-72
2022/07/23 11:55:11;;;;;;;3.92;3.63;;;30.70;42.30;;;;;;5088198;28;45279;-72
2022/07/23 11:57:38;;;;;;;4.45;4.15;;;30.80;42.30;;;;;;5088353;28;45280;-72
2022/07/23 12:00:07;;;;;;;3.78;3.47;;;30.80;42.20;;;;;;5087253;28;45231;-72
2022/07/23 12:02:35;;;;;;;4.00;3.70;;;30.80;42.10;;;;;;5088487;28;45242;-72
2022/07/23 12:05:02;;;;;;;3.60;3.38;;;30.80;42.10;;;;;;5088279;28;47355;-72
2022/07/23 12:07:31;;;;;;;4.10;3.80;;;30.80;42.10;;;;;;5087791;28;45483;-71
2022/07/23 12:09:58;;;;;;;9.95;4.68;;;30.80;42.10;;;;;;5087911;28;45214;-72
2022/07/23 12:12:25;;;;;;;6.63;4.72;;;30.80;42.50;;;;;;5088417;28;45237;-72
2022/07/23 12:14:53;;;;;;;5.50;4.88;;;30.70;43.00;;;;;;5087846;28;46408;-72
2022/07/23 12:17:20;;;;;;;9.32;5.70;;;30.70;43.30;;;;;;5087392;28;45225;-73
2022/07/23 12:19:48;;;;;;;6.57;5.97;;;30.70;43.80;;;;;;5087918;28;45356;-72
2022/07/23 12:22:15;;;;;;;7.28;5.85;;;30.60;43.70;;;;;;5087822;28;45143;-72
2022/07/23 12:24:57;;;;;;;8.18;5.85;;;30.60;43.70;;;;;;5087392;28;45438;-72
2022/07/23 12:27:24;;;;;;;6.63;5.80;;;30.70;44.00;;;;;;5087289;28;45188;-73
2022/07/23 12:29:51;;;;;;;6.50;5.90;;;30.70;43.90;;;;;;5087404;28;45241;-73
2022/07/23 12:32:21;;;;;;;6.38;5.78;;;30.80;43.80;;;;;;5087725;28;45408;-73
2022/07/23 12:34:51;;;;;;;7.53;5.80;;;30.90;43.60;;;;;;5086953;28;45440;-72
2022/07/23 12:37:28;;;;;;;7.03;5.70;;;30.90;43.20;;;;;;5086823;28;45234;-72
2022/07/23 12:39:55;;;;;;;8.27;7.38;;;31.00;43.50;;;;;;5086715;28;45268;-71
2022/07/23 12:42:24;;;;;;;8.45;7.72;;;31.00;43.30;;;;;;5087122;28;45379;-73
2022/07/23 12:45:11;;;;;;;8.35;7.55;;;31.00;43.10;;;;;;5086909;28;46485;-73
2022/07/23 12:47:59;;;;;;;7.38;6.68;;;31.10;43.00;;;;;;5086937;28;45385;-72
2022/07/23 12:50:38;;;;;;;7.30;6.28;;;31.10;42.80;;;;;;5087146;28;45240;-72
2022/07/23 12:53:06;;;;;;;7.13;5.75;;;31.20;42.50;;;;;;5086831;28;45363;-72
2022/07/23 12:55:33;;;;;;;7.10;6.47;;;31.20;42.40;;;;;;5086464;28;46431;-72
2022/07/23 12:58:12;;;;;;;7.13;6.07;;;31.30;42.20;;;;;;5087312;28;45281;-72